createdAt,value
2017-10-20T00:00:02.322Z,94.18
2017-10-20T00:02:28.599Z,94.13
2017-10-20T00:04:54.847Z,93.91
2017-10-20T00:07:21.959Z,93.86
2017-10-20T00:09:48.280Z,94.09
2017-10-20T00:12:14.622Z,93.64
2017-10-20T00:14:40.866Z,93.59
2017-10-20T00:17:07.139Z,93.87
2017-10-20T00:19:33.421Z,93.71
2017-10-20T00:21:59.694Z,93.04
2017-10-20T00:24:26.103Z,92.71
2017-10-20T00:26:52.530Z,92.93
2017-10-20T00:29:18.795Z,92.98
2017-10-20T00:31:45.070Z,93.16
2017-10-20T00:34:11.336Z,93.49
2017-10-20T00:36:37.600Z,93.38
2017-10-20T00:39:03.896Z,93.36
2017-10-20T00:41:30.170Z,93.71
2017-10-20T00:43:56.444Z,93.74
2017-10-20T00:46:22.707Z,93.47
2017-10-20T00:48:48.987Z,93.31
2017-10-20T00:51:15.244Z,93.25
2017-10-20T00:53:41.497Z,93.64
2017-10-20T00:56:07.760Z,93.46
2017-10-20T00:58:34.017Z,93.42
2017-10-20T01:01:00.365Z,93.54
2017-10-20T01:03:26.681Z,93.72
2017-10-20T01:05:52.970Z,93.78
2017-10-20T01:08:19.239Z,93.83
2017-10-20T01:10:45.477Z,94.02
2017-10-20T01:13:11.742Z,93.93
2017-10-20T01:15:38.015Z,94.02
2017-10-20T01:18:04.282Z,94.31
2017-10-20T01:20:30.592Z,94.40
2017-10-20T01:22:56.850Z,94.51
2017-10-20T01:25:23.160Z,94.61
2017-10-20T01:27:49.439Z,94.51
2017-10-20T01:30:15.728Z,94.65
2017-10-20T01:32:42.146Z,94.79
2017-10-20T01:35:08.395Z,94.90
2017-10-20T01:37:34.671Z,95.03
2017-10-20T01:40:00.931Z,94.66
2017-10-20T01:42:27.194Z,94.20
2017-10-20T01:44:53.462Z,93.71
2017-10-20T01:47:19.726Z,93.63
2017-10-20T01:49:46.053Z,93.72
2017-10-20T01:52:12.333Z,93.55
2017-10-20T01:54:38.613Z,93.73
2017-10-20T01:57:04.888Z,93.36
2017-10-20T01:59:31.165Z,93.14
2017-10-20T02:01:57.499Z,93.30
2017-10-20T02:04:23.778Z,93.89
2017-10-20T02:06:50.058Z,93.65
2017-10-20T02:09:16.336Z,93.69
2017-10-20T02:11:42.618Z,94.00
2017-10-20T02:14:08.883Z,94.15
2017-10-20T02:16:35.162Z,94.17
2017-10-20T02:19:01.437Z,94.10
2017-10-20T02:21:27.938Z,94.10
2017-10-20T02:23:54.227Z,94.23
2017-10-20T02:26:20.550Z,94.05
2017-10-20T02:28:46.835Z,94.08
2017-10-20T02:31:13.111Z,94.12
2017-10-20T02:33:39.416Z,94.63
2017-10-20T02:36:05.695Z,94.34
2017-10-20T02:38:32.003Z,93.91
2017-10-20T02:40:58.277Z,93.95
2017-10-20T02:43:24.545Z,93.76
2017-10-20T02:45:50.808Z,93.93
2017-10-20T02:48:17.093Z,94.28
2017-10-20T02:50:43.425Z,94.34
2017-10-20T02:53:09.734Z,94.56
2017-10-20T02:55:36.028Z,94.59
2017-10-20T02:58:02.324Z,94.61
2017-10-20T03:00:28.582Z,94.61
2017-10-20T03:02:54.854Z,94.73
2017-10-20T03:05:21.127Z,94.62
2017-10-20T03:07:47.396Z,94.66
2017-10-20T03:10:13.662Z,94.71
2017-10-20T03:12:39.927Z,94.78
2017-10-20T03:15:06.239Z,94.69
2017-10-20T03:17:32.508Z,94.87
2017-10-20T03:19:58.773Z,94.75
2017-10-20T03:22:25.032Z,94.61
2017-10-20T03:24:51.276Z,94.67
2017-10-20T03:27:17.547Z,94.70
2017-10-20T03:29:43.802Z,94.74
2017-10-20T03:32:10.228Z,94.79
2017-10-20T03:34:36.508Z,94.88
2017-10-20T03:37:02.774Z,94.76
2017-10-20T03:39:29.093Z,94.03
2017-10-20T03:41:55.357Z,94.09
2017-10-20T03:44:21.630Z,93.51
2017-10-20T03:46:48.010Z,93.63
2017-10-20T03:49:14.287Z,93.72
2017-10-20T03:51:40.565Z,93.64
2017-10-20T03:54:06.834Z,93.58
2017-10-20T03:56:33.095Z,93.48
2017-10-20T03:58:59.365Z,93.61
2017-10-20T04:01:25.625Z,94.36
2017-10-20T04:03:51.947Z,94.64
2017-10-20T04:06:18.216Z,94.42
2017-10-20T04:08:44.494Z,94.25
2017-10-20T04:11:10.767Z,94.59
2017-10-20T04:13:37.049Z,94.39
2017-10-20T04:16:03.327Z,94.15
2017-10-20T04:18:29.587Z,94.39
2017-10-20T04:20:55.839Z,94.41
2017-10-20T04:23:22.108Z,94.72
2017-10-20T04:25:48.473Z,94.58
2017-10-20T04:28:14.774Z,93.39
2017-10-20T04:30:41.050Z,93.28
2017-10-20T04:33:07.327Z,93.66
2017-10-20T04:35:33.591Z,93.28
2017-10-20T04:37:59.871Z,93.31
2017-10-20T04:40:26.272Z,93.77
2017-10-20T04:42:52.602Z,93.85
2017-10-20T04:45:18.882Z,92.85
2017-10-20T04:47:45.176Z,92.56
2017-10-20T04:50:11.442Z,93.19
2017-10-20T04:52:37.714Z,93.25
2017-10-20T04:55:03.990Z,93.24
2017-10-20T04:57:30.272Z,92.51
2017-10-20T04:59:56.552Z,91.33
2017-10-20T05:02:22.824Z,89.45
2017-10-20T05:04:49.140Z,87.10
2017-10-20T05:07:15.411Z,82.18
2017-10-20T05:09:41.685Z,78.13
2017-10-20T05:12:07.981Z,73.37
2017-10-20T05:14:34.238Z,70.06
2017-10-20T05:17:00.557Z,67.42
2017-10-20T05:19:26.891Z,66.14
2017-10-20T05:21:53.181Z,62.03
2017-10-20T05:24:19.465Z,59.92
2017-10-20T05:26:45.758Z,59.25
2017-10-20T05:29:12.030Z,59.64
2017-10-20T05:31:38.295Z,58.10
2017-10-20T05:34:04.557Z,57.61
2017-10-20T05:36:30.820Z,54.64
2017-10-20T05:38:57.093Z,52.76
2017-10-20T05:41:23.418Z,50.79
2017-10-20T05:43:49.685Z,51.38
2017-10-20T05:46:15.952Z,49.85
2017-10-20T05:48:42.228Z,49.78
2017-10-20T05:51:08.488Z,48.42
2017-10-20T05:53:34.773Z,47.73
2017-10-20T05:56:01.033Z,46.21
2017-10-20T05:58:27.428Z,46.12
2017-10-20T06:00:53.704Z,45.04
2017-10-20T06:03:19.974Z,45.92
2017-10-20T06:05:46.237Z,45.60
2017-10-20T06:08:12.509Z,45.93
2017-10-20T06:10:38.802Z,43.88
2017-10-20T06:13:05.127Z,43.96
2017-10-20T06:15:31.394Z,43.49
2017-10-20T06:17:57.672Z,42.19
2017-10-20T06:20:23.925Z,42.94
2017-10-20T06:22:50.213Z,42.11
2017-10-20T06:25:16.537Z,41.51
2017-10-20T06:27:42.816Z,41.03
2017-10-20T06:30:09.077Z,40.24
2017-10-20T06:32:35.340Z,39.15
2017-10-20T06:35:01.658Z,39.25
2017-10-20T06:37:27.973Z,40.13
2017-10-20T06:39:54.335Z,37.56
2017-10-20T06:42:20.603Z,37.19
2017-10-20T06:44:46.878Z,38.12
2017-10-20T06:47:13.165Z,37.63
2017-10-20T06:49:39.457Z,36.15
2017-10-20T06:52:05.738Z,37.19
2017-10-20T06:54:32.018Z,36.02
2017-10-20T06:56:58.297Z,37.18
2017-10-20T06:59:24.587Z,37.63
2017-10-20T07:01:50.909Z,37.95
2017-10-20T07:04:17.180Z,38.34
2017-10-20T07:06:43.463Z,37.86
2017-10-20T07:09:09.735Z,37.94
2017-10-20T07:11:36.131Z,37.38
2017-10-20T07:14:02.431Z,36.48
2017-10-20T07:16:28.721Z,35.44
2017-10-20T07:18:55.003Z,36.52
2017-10-20T07:21:21.287Z,36.09
2017-10-20T07:23:47.593Z,34.38
2017-10-20T07:26:13.907Z,36.94
2017-10-20T07:28:40.198Z,35.48
2017-10-20T07:31:06.509Z,35.68
2017-10-20T07:33:32.797Z,34.68
2017-10-20T07:35:59.082Z,34.25
2017-10-20T07:38:25.439Z,36.29
2017-10-20T07:40:51.716Z,35.37
2017-10-20T07:43:18.006Z,34.51
2017-10-20T07:45:44.293Z,34.09
2017-10-20T07:48:10.572Z,34.33
2017-10-20T07:50:36.919Z,33.58
2017-10-20T07:53:03.183Z,32.98
2017-10-20T07:55:29.478Z,34.35
2017-10-20T07:57:55.882Z,33.87
2017-10-20T08:00:22.144Z,33.79
2017-10-20T08:02:48.424Z,36.39
2017-10-20T08:05:14.721Z,33.09
2017-10-20T08:07:40.989Z,33.55
2017-10-20T08:10:07.289Z,32.61
2017-10-20T08:12:33.571Z,33.20
2017-10-20T08:14:59.926Z,34.19
2017-10-20T08:17:26.188Z,32.23
2017-10-20T08:19:52.451Z,31.31
2017-10-20T08:22:18.731Z,31.99
2017-10-20T08:24:45.011Z,31.54
2017-10-20T08:27:11.296Z,31.72
2017-10-20T08:29:37.593Z,30.82
2017-10-20T08:32:03.871Z,30.24
2017-10-20T08:34:30.163Z,28.36
2017-10-20T08:36:56.599Z,28.88
2017-10-20T08:39:22.879Z,29.50
2017-10-20T08:41:49.135Z,28.55
2017-10-20T08:44:15.407Z,28.11
2017-10-20T08:46:41.642Z,27.15
2017-10-20T08:49:07.877Z,27.90
2017-10-20T08:51:34.160Z,28.08
2017-10-20T08:54:00.377Z,27.30
2017-10-20T08:56:26.588Z,27.28
2017-10-20T08:58:52.851Z,27.88
2017-10-20T09:01:19.101Z,26.65
2017-10-20T09:03:45.341Z,24.44
2017-10-20T09:06:11.573Z,24.40
2017-10-20T09:08:37.804Z,24.31
2017-10-20T09:11:04.145Z,25.48
2017-10-20T09:13:30.362Z,24.27
2017-10-20T09:15:56.673Z,23.39
2017-10-20T09:18:22.912Z,23.62
2017-10-20T09:20:49.154Z,22.22
2017-10-20T09:23:15.403Z,21.28
2017-10-20T09:25:41.635Z,20.96
2017-10-20T09:28:07.855Z,19.65
2017-10-20T09:30:34.081Z,23.06
2017-10-20T09:33:00.328Z,21.59
2017-10-20T09:35:26.561Z,20.74
2017-10-20T09:37:52.807Z,20.42
2017-10-20T09:40:19.084Z,20.16
2017-10-20T09:42:45.297Z,19.74
2017-10-20T09:45:11.517Z,21.13
2017-10-20T09:47:37.756Z,20.29
2017-10-20T09:50:03.986Z,21.14
2017-10-20T09:52:30.206Z,20.38
2017-10-20T09:54:56.444Z,21.28
2017-10-20T09:57:22.677Z,20.76
2017-10-20T09:59:48.902Z,19.88
2017-10-20T10:02:15.261Z,19.70
2017-10-20T10:04:41.515Z,20.50
2017-10-20T10:07:07.717Z,19.95
2017-10-20T10:09:33.938Z,19.27
2017-10-20T10:12:00.188Z,18.51
2017-10-20T10:14:26.418Z,19.41
2017-10-20T10:16:52.728Z,19.93
2017-10-20T10:19:18.941Z,19.09
2017-10-20T10:21:45.162Z,18.98
2017-10-20T10:24:11.376Z,19.94
2017-10-20T10:26:37.595Z,20.40
2017-10-20T10:29:03.873Z,20.74
2017-10-20T10:31:30.112Z,19.46
2017-10-20T10:33:56.362Z,18.67
2017-10-20T10:36:22.601Z,18.70
2017-10-20T10:38:48.820Z,18.70
2017-10-20T10:41:15.074Z,18.34
2017-10-20T10:43:41.327Z,17.88
2017-10-20T10:46:07.555Z,17.49
2017-10-20T10:48:33.778Z,17.52
2017-10-20T10:51:00.035Z,16.55
2017-10-20T10:53:26.258Z,17.22
2017-10-20T10:55:52.518Z,17.85
2017-10-20T10:58:18.746Z,17.84
2017-10-20T11:00:44.994Z,17.84
2017-10-20T11:03:11.364Z,18.49
2017-10-20T11:05:37.596Z,19.10
2017-10-20T11:08:03.835Z,19.69
2017-10-20T11:10:30.042Z,19.42
2017-10-20T11:12:56.290Z,20.75
2017-10-20T11:15:22.617Z,18.93
2017-10-20T11:17:48.842Z,19.42
2017-10-20T11:20:15.068Z,19.53
2017-10-20T11:22:41.410Z,18.92
2017-10-20T11:25:07.692Z,18.26
2017-10-20T11:27:33.938Z,18.19
2017-10-20T11:30:00.170Z,18.27
2017-10-20T11:32:26.618Z,18.82
2017-10-20T11:34:52.837Z,19.00
2017-10-20T11:37:19.059Z,19.40
2017-10-20T11:39:45.297Z,20.32
2017-10-20T11:42:11.518Z,19.51
2017-10-20T11:44:37.733Z,19.02
2017-10-20T11:47:03.974Z,19.17
2017-10-20T11:49:30.237Z,20.24
2017-10-20T11:51:56.481Z,18.97
2017-10-20T11:54:22.717Z,21.89
2017-10-20T11:56:48.949Z,20.53
2017-10-20T11:59:15.358Z,19.36
2017-10-20T12:01:41.614Z,19.12
2017-10-20T12:04:07.842Z,17.73
2017-10-20T12:06:34.062Z,17.56
2017-10-20T12:09:00.320Z,17.29
2017-10-20T12:11:26.557Z,18.13
2017-10-20T12:13:52.795Z,18.67
2017-10-20T12:16:19.060Z,18.90
2017-10-20T12:18:45.308Z,16.76
2017-10-20T12:21:11.543Z,16.31
2017-10-20T12:23:37.783Z,17.16
2017-10-20T12:26:04.027Z,18.38
2017-10-20T12:28:30.269Z,17.31
2017-10-20T12:30:56.552Z,17.12
2017-10-20T12:33:22.779Z,16.22
2017-10-20T12:35:49.017Z,15.73
2017-10-20T12:38:15.285Z,15.51
2017-10-20T12:40:41.526Z,15.12
2017-10-20T12:43:07.802Z,15.29
2017-10-20T12:45:34.072Z,18.38
2017-10-20T12:48:00.546Z,18.83
2017-10-20T12:50:26.783Z,19.33
2017-10-20T12:52:53.212Z,19.57
2017-10-20T12:55:19.461Z,19.40
2017-10-20T12:57:45.706Z,20.53
2017-10-20T13:00:11.931Z,18.98
2017-10-20T13:02:38.193Z,18.58
2017-10-20T13:05:04.448Z,19.18
2017-10-20T13:07:30.754Z,19.33
2017-10-20T13:09:57.014Z,20.44
2017-10-20T13:12:23.465Z,19.43
2017-10-20T13:14:49.752Z,20.89
2017-10-20T13:17:16.005Z,20.73
2017-10-20T13:19:42.283Z,20.93
2017-10-20T13:22:08.592Z,20.08
2017-10-20T13:24:34.840Z,19.48
2017-10-20T13:27:01.189Z,20.48
2017-10-20T13:29:27.442Z,21.52
2017-10-20T13:31:53.704Z,23.10
2017-10-20T13:34:19.964Z,24.70
2017-10-20T13:36:46.247Z,25.27
2017-10-20T13:39:12.507Z,28.07
2017-10-20T13:41:38.778Z,29.44
2017-10-20T13:44:05.046Z,30.42
2017-10-20T13:46:31.325Z,31.92
2017-10-20T13:48:57.577Z,32.20
2017-10-20T13:51:23.890Z,32.47
2017-10-20T13:53:50.144Z,32.76
2017-10-20T13:56:16.417Z,33.85
2017-10-20T13:58:42.674Z,34.56
2017-10-20T14:01:08.946Z,34.52
2017-10-20T14:03:35.222Z,34.78
2017-10-20T14:06:01.517Z,34.78
2017-10-20T14:08:27.787Z,34.74
2017-10-20T14:10:54.045Z,34.51
2017-10-20T14:13:20.421Z,35.25
2017-10-20T14:15:46.688Z,35.93
2017-10-20T14:18:12.942Z,35.75
2017-10-20T14:20:39.220Z,36.01
2017-10-20T14:23:05.497Z,35.59
2017-10-20T14:25:31.767Z,36.16
2017-10-20T14:27:58.065Z,37.00
2017-10-20T14:30:24.314Z,37.32
2017-10-20T14:32:50.564Z,37.33
2017-10-20T14:35:16.839Z,37.81
2017-10-20T14:37:43.176Z,39.54
2017-10-20T14:40:09.542Z,39.81
2017-10-20T14:42:35.854Z,40.87
2017-10-20T14:45:02.141Z,42.33
2017-10-20T14:47:28.408Z,43.48
2017-10-20T14:49:54.694Z,45.33
2017-10-20T14:52:20.996Z,45.64
2017-10-20T14:54:47.293Z,47.23
2017-10-20T14:57:13.561Z,49.24
2017-10-20T14:59:39.860Z,48.42
2017-10-20T15:02:06.141Z,49.73
2017-10-20T15:04:32.455Z,50.80
2017-10-20T15:06:58.743Z,52.07
2017-10-20T15:09:25.039Z,52.53
2017-10-20T15:11:51.337Z,53.64
2017-10-20T15:14:17.634Z,54.86
2017-10-20T15:16:43.899Z,55.55
2017-10-20T15:19:10.189Z,56.49
2017-10-20T15:21:36.458Z,57.20
2017-10-20T15:24:02.710Z,57.85
2017-10-20T15:26:28.960Z,58.03
2017-10-20T15:28:55.269Z,59.10
2017-10-20T15:31:21.525Z,58.88
2017-10-20T15:33:48.797Z,60.37
2017-10-20T15:36:15.071Z,61.20
2017-10-20T15:38:41.315Z,61.58
2017-10-20T15:41:07.636Z,62.24
2017-10-20T15:43:33.917Z,62.47
2017-10-20T15:46:00.182Z,63.27
2017-10-20T15:48:26.494Z,64.41
2017-10-20T15:50:52.809Z,65.31
2017-10-20T15:53:19.126Z,66.55
2017-10-20T15:55:45.458Z,68.22
2017-10-20T15:58:11.735Z,68.16
2017-10-20T16:00:38.001Z,66.87
2017-10-20T16:03:04.266Z,68.62
2017-10-20T16:05:30.528Z,69.62
2017-10-20T16:07:56.783Z,68.26
2017-10-20T16:10:23.043Z,70.08
2017-10-20T16:12:49.309Z,69.34
2017-10-20T16:15:15.566Z,71.11
2017-10-20T16:17:41.821Z,71.42
2017-10-20T16:20:08.142Z,70.64
2017-10-20T16:22:34.413Z,72.95
2017-10-20T16:25:00.673Z,72.94
2017-10-20T16:27:27.075Z,74.52
2017-10-20T16:29:53.551Z,75.37
2017-10-20T16:32:19.860Z,75.90
2017-10-20T16:34:46.182Z,76.26
2017-10-20T16:37:12.455Z,76.66
2017-10-20T16:39:38.718Z,76.87
2017-10-20T16:42:05.074Z,77.15
2017-10-20T16:44:31.371Z,77.37
2017-10-20T16:46:57.642Z,78.12
2017-10-20T16:49:23.897Z,79.33
2017-10-20T16:51:50.151Z,78.79
2017-10-20T16:54:16.427Z,78.57
2017-10-20T16:56:42.692Z,78.33
2017-10-20T16:59:08.970Z,78.57
2017-10-20T17:01:35.227Z,79.42
2017-10-20T17:04:01.536Z,79.07
2017-10-20T17:06:27.993Z,79.02
2017-10-20T17:08:54.305Z,78.88
2017-10-20T17:11:20.575Z,79.29
2017-10-20T17:13:46.969Z,79.60
2017-10-20T17:16:13.242Z,80.40
2017-10-20T17:18:39.623Z,80.15
2017-10-20T17:21:05.924Z,81.01
2017-10-20T17:23:32.241Z,81.43
2017-10-20T17:25:58.475Z,81.00
2017-10-20T17:28:24.743Z,81.26
2017-10-20T17:30:51.061Z,81.42
2017-10-20T17:33:17.358Z,82.04
2017-10-20T17:35:43.618Z,81.71
2017-10-20T17:38:09.878Z,82.03
2017-10-20T17:40:36.164Z,82.14
2017-10-20T17:43:02.423Z,82.18
2017-10-20T17:45:28.678Z,82.30
2017-10-20T17:47:54.918Z,82.38
2017-10-20T17:50:21.164Z,82.78
2017-10-20T17:52:47.469Z,83.35
2017-10-20T17:55:13.726Z,83.31
2017-10-20T17:57:39.989Z,83.28
2017-10-20T18:00:06.418Z,82.61
2017-10-20T18:02:32.685Z,82.87
2017-10-20T18:04:58.940Z,83.58
2017-10-20T18:07:25.192Z,83.49
2017-10-20T18:09:51.460Z,83.32
2017-10-20T18:12:17.723Z,84.07
2017-10-20T18:14:43.981Z,84.35
2017-10-20T18:17:10.239Z,83.82
2017-10-20T18:19:36.531Z,83.83
2017-10-20T18:22:02.803Z,83.69
2017-10-20T18:24:29.064Z,83.91
2017-10-20T18:26:55.334Z,83.82
2017-10-20T18:29:21.626Z,84.13
2017-10-20T18:31:47.872Z,84.91
2017-10-20T18:34:14.126Z,84.70
2017-10-20T18:36:40.387Z,84.93
2017-10-20T18:39:06.644Z,84.78
2017-10-20T18:41:32.907Z,85.17
2017-10-20T18:43:59.182Z,85.47
2017-10-20T18:46:25.499Z,84.99
2017-10-20T18:48:51.754Z,85.34
2017-10-20T18:51:18.007Z,85.46
2017-10-20T18:53:44.297Z,85.41
2017-10-20T18:56:10.567Z,85.51
2017-10-20T18:58:36.847Z,85.72
2017-10-20T19:01:03.164Z,86.21
2017-10-20T19:03:29.625Z,86.28
2017-10-20T19:05:55.883Z,86.52
2017-10-20T19:08:22.228Z,86.87
2017-10-20T19:10:48.485Z,87.11
2017-10-20T19:13:14.757Z,86.59
2017-10-20T19:15:41.022Z,89.19
2017-10-20T19:18:07.288Z,89.50
2017-10-20T19:20:33.568Z,88.88
2017-10-20T19:22:59.860Z,89.45
2017-10-20T19:25:26.113Z,88.75
2017-10-20T19:27:52.388Z,89.90
2017-10-20T19:30:18.651Z,89.14
2017-10-20T19:32:44.937Z,88.77
2017-10-20T19:35:11.204Z,87.44
2017-10-20T19:37:37.470Z,87.80
2017-10-20T19:40:03.870Z,88.90
2017-10-20T19:42:30.160Z,88.40
2017-10-20T19:44:56.435Z,89.39
2017-10-20T19:47:22.687Z,90.43
2017-10-20T19:49:48.937Z,88.48
2017-10-20T19:52:15.256Z,88.73
2017-10-20T19:54:41.584Z,88.66
2017-10-20T19:57:07.874Z,88.68
2017-10-20T19:59:34.171Z,88.01
2017-10-20T20:02:00.431Z,90.00
2017-10-20T20:04:26.775Z,89.15
2017-10-20T20:06:53.100Z,88.65
2017-10-20T20:09:19.355Z,89.55
2017-10-20T20:11:45.642Z,89.50
2017-10-20T20:14:11.895Z,88.99
2017-10-20T20:16:38.186Z,89.01
2017-10-20T20:19:04.460Z,89.09
2017-10-20T20:21:30.725Z,90.51
2017-10-20T20:23:57.023Z,90.77
2017-10-20T20:26:23.285Z,89.46
2017-10-20T20:28:49.644Z,88.06
2017-10-20T20:31:15.916Z,87.94
2017-10-20T20:33:42.189Z,88.47
2017-10-20T20:36:08.451Z,88.89
2017-10-20T20:38:34.722Z,90.67
2017-10-20T20:41:00.999Z,89.61
2017-10-20T20:43:27.259Z,89.37
2017-10-20T20:45:53.535Z,89.60
2017-10-20T20:48:19.831Z,89.43
2017-10-20T20:50:46.083Z,89.70
2017-10-20T20:53:12.383Z,90.68
2017-10-20T20:55:38.688Z,90.67
2017-10-20T20:58:05.009Z,90.21
2017-10-20T21:00:31.323Z,90.65
2017-10-20T21:02:57.598Z,90.50
2017-10-20T21:05:23.867Z,90.18
2017-10-20T21:07:50.175Z,90.31
2017-10-20T21:10:16.448Z,90.65
2017-10-20T21:12:42.988Z,91.34
2017-10-20T21:15:09.263Z,92.07
2017-10-20T21:17:35.523Z,90.68
2017-10-20T21:20:01.800Z,91.37
2017-10-20T21:22:28.051Z,90.94
2017-10-20T21:24:54.341Z,91.08
2017-10-20T21:27:20.610Z,91.31
2017-10-20T21:29:46.870Z,91.85
2017-10-20T21:32:13.149Z,92.03
2017-10-20T21:34:39.404Z,92.21
2017-10-20T21:37:05.689Z,91.89
2017-10-20T21:39:31.961Z,91.98
2017-10-20T21:41:58.255Z,92.59
2017-10-20T21:44:24.518Z,92.05
2017-10-20T21:46:50.782Z,91.27
2017-10-20T21:49:17.244Z,91.75
2017-10-20T21:51:43.488Z,91.33
2017-10-20T21:54:09.727Z,91.39
2017-10-20T21:56:35.974Z,92.58
2017-10-20T21:59:02.253Z,91.36
2017-10-20T22:01:28.548Z,91.62
2017-10-20T22:03:54.806Z,92.08
2017-10-20T22:06:21.066Z,91.83
2017-10-20T22:08:47.340Z,91.50
2017-10-20T22:11:13.638Z,91.83
2017-10-20T22:13:39.908Z,92.27
2017-10-20T22:16:06.190Z,92.14
2017-10-20T22:18:32.463Z,92.63
2017-10-20T22:20:58.735Z,92.22
2017-10-20T22:23:25.067Z,92.01
2017-10-20T22:25:51.350Z,92.28
2017-10-20T22:28:17.620Z,93.20
2017-10-20T22:30:43.884Z,92.50
2017-10-20T22:33:10.142Z,92.25
2017-10-20T22:35:36.509Z,92.17
2017-10-20T22:38:02.792Z,92.12
2017-10-20T22:40:29.059Z,92.52
2017-10-20T22:42:55.323Z,93.10
2017-10-20T22:45:21.597Z,93.33
2017-10-20T22:47:47.857Z,93.32
2017-10-20T22:50:14.176Z,93.09
2017-10-20T22:52:40.441Z,93.26
2017-10-20T22:55:06.714Z,94.01
2017-10-20T22:57:32.981Z,93.09
2017-10-20T22:59:59.248Z,92.76
2017-10-20T23:02:25.574Z,92.74
2017-10-20T23:04:51.841Z,92.88
2017-10-20T23:07:18.198Z,92.89
2017-10-20T23:09:44.642Z,93.44
2017-10-20T23:12:11.073Z,92.84
2017-10-20T23:14:37.392Z,92.68
2017-10-20T23:17:03.662Z,92.84
2017-10-20T23:19:29.950Z,93.14
2017-10-20T23:21:56.233Z,93.33
2017-10-20T23:24:22.517Z,92.96
2017-10-20T23:26:48.817Z,92.63
2017-10-20T23:29:15.095Z,93.07
2017-10-20T23:31:41.374Z,92.75
2017-10-20T23:34:07.650Z,93.09
2017-10-20T23:36:33.937Z,93.71
2017-10-20T23:39:00.274Z,92.99
2017-10-20T23:41:26.569Z,92.94
2017-10-20T23:43:52.844Z,93.14
2017-10-20T23:46:19.124Z,93.05
2017-10-20T23:48:45.523Z,92.81
2017-10-20T23:51:11.815Z,93.83
2017-10-20T23:53:38.075Z,92.89
2017-10-20T23:56:04.348Z,92.83
2017-10-20T23:58:30.801Z,92.75
